createdAt,value
2022-09-01T00:01:39.201Z,17.94
2022-09-01T00:04:08.881Z,17.94
2022-09-01T00:06:40.861Z,17.95
2022-09-01T00:09:13.478Z,18.07
2022-09-01T00:11:42.431Z,17.82
2022-09-01T00:14:29.320Z,17.58
2022-09-01T00:16:58.884Z,17.39
2022-09-01T00:19:26.552Z,17.04
2022-09-01T00:21:55.392Z,17.26
2022-09-01T00:24:25.975Z,17.99
2022-09-01T00:26:54.556Z,18.28
2022-09-01T00:29:22.405Z,18.55
2022-09-01T00:31:50.626Z,18.42
2022-09-01T00:34:18.452Z,18.68
2022-09-01T00:36:46.258Z,18.60
2022-09-01T00:39:16.814Z,18.60
2022-09-01T00:41:46.972Z,18.73
2022-09-01T00:44:17.179Z,18.54
2022-09-01T00:46:49.910Z,18.38
2022-09-01T00:49:29.643Z,18.65
2022-09-01T00:52:02.430Z,18.83
2022-09-01T00:54:34.969Z,18.93
2022-09-01T00:57:04.440Z,18.93
2022-09-01T00:59:33.148Z,19.01
2022-09-01T01:02:00.811Z,18.86
2022-09-01T01:04:30.179Z,18.91
2022-09-01T01:07:02.194Z,18.73
2022-09-01T01:09:35.677Z,18.75
2022-09-01T01:12:06.309Z,18.51
2022-09-01T01:14:36.889Z,17.68
2022-09-01T01:17:05.064Z,17.64
2022-09-01T01:19:59.867Z,17.91
2022-09-01T01:22:58.007Z,18.01
2022-09-01T01:25:26.918Z,17.83
2022-09-01T01:28:05.369Z,17.53
2022-09-01T01:30:36.867Z,17.43
2022-09-01T01:33:05.662Z,17.53
2022-09-01T01:35:34.040Z,18.14
2022-09-01T01:38:03.593Z,18.16
2022-09-01T01:40:32.482Z,18.17
2022-09-01T01:43:01.192Z,18.14
2022-09-01T01:45:30.095Z,17.97
2022-09-01T01:47:57.721Z,17.97
2022-09-01T01:50:29.603Z,17.92
2022-09-01T01:53:00.034Z,18.30
2022-09-01T01:55:28.923Z,18.47
2022-09-01T01:57:59.101Z,18.27
2022-09-01T02:00:30.928Z,18.05
2022-09-01T02:02:58.900Z,18.48
2022-09-01T02:05:29.865Z,18.63
2022-09-01T02:08:01.713Z,18.77
2022-09-01T02:10:31.545Z,18.80
2022-09-01T02:13:05.883Z,18.77
2022-09-01T02:15:44.165Z,18.40
2022-09-01T02:18:14.209Z,18.19
2022-09-01T02:20:42.105Z,17.32
2022-09-01T02:23:10.694Z,17.71
2022-09-01T02:26:05.070Z,17.45
2022-09-01T02:28:36.820Z,17.63
2022-09-01T02:31:08.935Z,17.62
2022-09-01T02:33:39.216Z,17.99
2022-09-01T02:36:09.556Z,17.35
2022-09-01T02:38:38.795Z,17.29
2022-09-01T02:41:07.920Z,17.11
2022-09-01T02:43:36.752Z,16.66
2022-09-01T02:46:06.270Z,16.37
2022-09-01T02:48:37.293Z,16.36
2022-09-01T02:51:08.402Z,16.51
2022-09-01T02:53:36.760Z,16.40
2022-09-01T02:56:09.472Z,16.65
2022-09-01T02:58:45.966Z,16.67
2022-09-01T03:01:22.614Z,16.61
2022-09-01T03:03:51.601Z,16.83
2022-09-01T03:06:24.033Z,17.04
2022-09-01T03:08:52.942Z,16.97
2022-09-01T03:11:20.597Z,17.07
2022-09-01T03:13:49.431Z,16.89
2022-09-01T03:16:17.104Z,17.00
2022-09-01T03:18:44.607Z,16.19
2022-09-01T03:21:16.994Z,16.36
2022-09-01T03:23:45.713Z,15.88
2022-09-01T03:26:14.143Z,16.12
2022-09-01T03:28:42.107Z,16.09
2022-09-01T03:31:11.034Z,16.22
2022-09-01T03:33:38.807Z,16.01
2022-09-01T03:36:14.916Z,16.45
2022-09-01T03:38:44.054Z,16.06
2022-09-01T03:41:13.163Z,16.28
2022-09-01T03:43:47.015Z,16.42
2022-09-01T03:46:20.173Z,16.27
2022-09-01T03:48:49.022Z,16.43
2022-09-01T03:51:16.616Z,16.68
2022-09-01T03:53:45.197Z,16.35
2022-09-01T03:56:14.028Z,15.93
2022-09-01T03:58:44.964Z,16.07
2022-09-01T04:01:13.928Z,15.88
2022-09-01T04:03:46.865Z,16.06
2022-09-01T04:06:14.979Z,15.82
2022-09-01T04:08:42.974Z,16.00
2022-09-01T04:11:16.396Z,15.97
2022-09-01T04:13:43.965Z,16.05
2022-09-01T04:16:33.627Z,16.51
2022-09-01T04:19:08.154Z,16.37
2022-09-01T04:21:35.654Z,16.68
2022-09-01T04:24:05.573Z,16.50
2022-09-01T04:26:33.824Z,16.76
2022-09-01T04:29:01.361Z,16.76
2022-09-01T04:31:30.784Z,17.02
2022-09-01T04:33:58.384Z,16.44
2022-09-01T04:36:30.704Z,16.47
2022-09-01T04:39:00.688Z,16.68
2022-09-01T04:41:31.470Z,16.63
2022-09-01T04:44:01.347Z,16.85
2022-09-01T04:46:31.288Z,16.89
2022-09-01T04:48:59.578Z,16.74
2022-09-01T04:51:28.409Z,16.80
2022-09-01T04:53:57.402Z,16.73
2022-09-01T04:56:27.817Z,16.74
2022-09-01T04:58:55.874Z,16.67
2022-09-01T05:01:25.499Z,16.15
2022-09-01T05:04:01.369Z,16.21
2022-09-01T05:06:34.533Z,16.17
2022-09-01T05:09:02.037Z,16.11
2022-09-01T05:11:29.509Z,16.50
2022-09-01T05:13:57.778Z,16.65
2022-09-01T05:16:25.936Z,16.30
2022-09-01T05:18:56.860Z,16.49
2022-09-01T05:21:28.231Z,16.35
2022-09-01T05:24:00.684Z,16.82
2022-09-01T05:26:31.456Z,16.79
2022-09-01T05:29:01.777Z,17.21
2022-09-01T05:31:37.493Z,17.04
2022-09-01T05:34:05.416Z,17.24
2022-09-01T05:36:33.508Z,17.31
2022-09-01T05:39:03.175Z,17.18
2022-09-01T05:41:30.754Z,16.48
2022-09-01T05:44:00.874Z,16.57
2022-09-01T05:46:29.800Z,16.43
2022-09-01T05:48:59.401Z,16.84
2022-09-01T05:51:46.296Z,16.66
2022-09-01T05:54:21.476Z,16.63
2022-09-01T05:56:49.820Z,16.63
2022-09-01T05:59:26.102Z,16.16
2022-09-01T06:01:55.009Z,16.17
2022-09-01T06:04:25.262Z,16.17
2022-09-01T06:07:10.257Z,16.71
2022-09-01T06:09:44.107Z,16.63
2022-09-01T06:12:17.396Z,16.32
2022-09-01T06:14:45.812Z,16.15
2022-09-01T06:17:16.259Z,16.39
2022-09-01T06:19:44.312Z,16.66
2022-09-01T06:22:12.203Z,16.68
2022-09-01T06:24:43.643Z,16.72
2022-09-01T06:27:13.176Z,16.61
2022-09-01T06:29:41.642Z,16.38
2022-09-01T06:32:10.686Z,16.28
2022-09-01T06:34:42.344Z,16.45
2022-09-01T06:37:10.861Z,16.18
2022-09-01T06:39:38.606Z,15.86
2022-09-01T06:42:09.468Z,15.96
2022-09-01T06:44:40.593Z,16.29
2022-09-01T06:47:09.031Z,15.87
2022-09-01T06:49:40.237Z,16.09
2022-09-01T06:52:07.755Z,16.10
2022-09-01T06:54:39.113Z,16.20
2022-09-01T06:59:56.051Z,16.61
2022-09-01T07:02:27.096Z,16.96
2022-09-01T07:04:55.108Z,16.61
2022-09-01T07:10:21.290Z,17.01
2022-09-01T07:13:08.627Z,16.58
2022-09-01T07:18:30.736Z,16.07
2022-09-01T07:21:36.115Z,16.26
2022-09-01T07:24:06.068Z,15.78
2022-09-01T07:26:35.946Z,16.11
2022-09-01T07:29:07.092Z,16.19
2022-09-01T07:34:46.228Z,16.74
2022-09-01T07:38:46.848Z,16.99
2022-09-01T07:43:12.786Z,17.73
2022-09-01T07:45:47.718Z,17.79
2022-09-01T07:49:01.051Z,18.15
2022-09-01T07:51:35.643Z,18.83
2022-09-01T07:53:55.694Z,19.85
2022-09-01T07:56:25.804Z,19.75
2022-09-01T07:58:53.831Z,19.36
2022-09-01T08:01:26.053Z,19.08
2022-09-01T08:03:55.585Z,19.09
2022-09-01T08:06:27.215Z,18.88
2022-09-01T08:08:57.952Z,18.69
2022-09-01T08:11:58.124Z,19.08
2022-09-01T08:14:18.187Z,18.99
2022-09-01T08:16:54.588Z,19.22
2022-09-01T08:19:23.002Z,19.57
2022-09-01T08:21:50.531Z,19.83
2022-09-01T08:24:19.134Z,18.77
2022-09-01T08:26:46.641Z,19.62
2022-09-01T08:29:14.107Z,19.83
2022-09-01T08:31:41.669Z,19.83
2022-09-01T08:34:12.701Z,20.35
2022-09-01T08:36:40.211Z,21.04
2022-09-01T08:39:07.666Z,21.52
2022-09-01T08:41:46.409Z,22.38
2022-09-01T08:44:25.496Z,22.88
2022-09-01T08:46:58.837Z,22.85
2022-09-01T08:49:28.257Z,22.68
2022-09-01T08:52:02.363Z,23.15
2022-09-01T08:54:36.468Z,23.12
2022-09-01T08:57:09.664Z,23.66
2022-09-01T08:59:37.287Z,23.29
2022-09-01T09:02:24.335Z,22.67
2022-09-01T09:05:15.478Z,22.41
2022-09-01T09:08:07.006Z,22.05
2022-09-01T09:10:43.571Z,22.53
2022-09-01T09:13:18.547Z,21.67
2022-09-01T09:16:06.912Z,22.01
2022-09-01T09:18:54.678Z,22.28
2022-09-01T09:21:30.113Z,24.05
2022-09-01T09:24:01.852Z,23.36
2022-09-01T09:26:42.253Z,24.59
2022-09-01T09:29:09.966Z,25.45
2022-09-01T09:31:43.637Z,25.49
2022-09-01T09:34:19.517Z,24.68
2022-09-01T09:36:54.603Z,24.26
2022-09-01T09:39:23.204Z,24.07
2022-09-01T09:42:09.386Z,24.59
2022-09-01T09:44:44.165Z,25.87
2022-09-01T09:47:33.373Z,27.09
2022-09-01T09:50:14.799Z,25.80
2022-09-01T09:52:46.828Z,22.59
2022-09-01T09:55:24.168Z,21.60
2022-09-01T09:57:54.249Z,22.26
2022-09-01T10:00:25.560Z,23.54
2022-09-01T10:02:57.212Z,25.45
2022-09-01T10:05:40.252Z,26.86
2022-09-01T10:08:11.605Z,27.51
2022-09-01T10:10:42.945Z,27.52
2022-09-01T10:13:13.972Z,27.18
2022-09-01T10:15:44.907Z,26.80
2022-09-01T10:18:32.056Z,26.63
2022-09-01T10:21:02.273Z,26.10
2022-09-01T10:23:37.005Z,26.57
2022-09-01T10:26:10.399Z,26.47
2022-09-01T10:28:49.893Z,26.09
2022-09-01T10:31:19.138Z,24.91
2022-09-01T10:33:47.113Z,24.44
2022-09-01T10:36:16.754Z,23.54
2022-09-01T10:38:53.961Z,23.34
2022-09-01T10:41:48.207Z,23.00
2022-09-01T10:44:21.083Z,22.70
2022-09-01T10:46:51.058Z,22.69
2022-09-01T10:49:38.852Z,23.11
2022-09-01T10:52:13.059Z,23.58
2022-09-01T10:55:00.185Z,23.88
2022-09-01T10:58:07.810Z,23.77
2022-09-01T11:04:00.664Z,23.76
2022-09-01T11:07:13.896Z,23.98
2022-09-01T11:09:43.872Z,23.51
2022-09-01T11:12:45.025Z,23.59
2022-09-01T11:15:36.657Z,23.86
2022-09-01T11:18:11.584Z,23.84
2022-09-01T11:20:42.661Z,23.98
2022-09-01T11:23:14.930Z,24.71
2022-09-01T11:25:45.643Z,25.84
2022-09-01T11:28:41.814Z,27.10
2022-09-01T11:31:28.953Z,28.09
2022-09-01T11:34:04.076Z,29.30
2022-09-01T11:36:35.998Z,27.77
2022-09-01T11:39:16.068Z,26.69
2022-09-01T11:41:57.506Z,26.17
2022-09-01T11:44:37.213Z,26.54
2022-09-01T11:47:13.665Z,26.69
2022-09-01T11:49:49.945Z,26.89
2022-09-01T11:52:19.408Z,27.44
2022-09-01T11:54:47.400Z,27.75
2022-09-01T11:57:35.021Z,29.11
2022-09-01T12:00:07.849Z,30.56
2022-09-01T12:02:37.471Z,30.56
2022-09-01T12:05:25.934Z,30.83
2022-09-01T12:07:53.975Z,31.85
2022-09-01T12:10:34.133Z,32.40
2022-09-01T12:13:04.400Z,32.72
2022-09-01T12:15:35.056Z,32.46
2022-09-01T12:18:16.977Z,29.29
2022-09-01T12:20:44.492Z,27.52
2022-09-01T12:23:20.441Z,26.25
2022-09-01T12:25:48.279Z,25.98
2022-09-01T12:28:16.876Z,26.14
2022-09-01T12:30:46.014Z,25.86
2022-09-01T12:33:23.632Z,25.84
2022-09-01T12:35:53.211Z,25.55
2022-09-01T12:38:25.830Z,25.74
2022-09-01T12:40:55.514Z,25.73
2022-09-01T12:43:36.887Z,25.34
2022-09-01T12:46:07.101Z,25.35
2022-09-01T12:48:36.721Z,25.86
2022-09-01T12:51:09.380Z,25.81
2022-09-01T12:53:37.261Z,25.74
2022-09-01T12:56:19.720Z,25.70
2022-09-01T12:58:54.376Z,25.53
2022-09-01T13:01:29.946Z,25.39
2022-09-01T13:04:17.294Z,25.74
2022-09-01T13:06:44.775Z,26.01
2022-09-01T13:09:12.333Z,26.71
2022-09-01T13:14:28.438Z,29.18
2022-09-01T13:16:57.890Z,30.23
2022-09-01T13:19:28.841Z,30.65
2022-09-01T13:21:58.242Z,30.40
2022-09-01T13:24:29.328Z,29.98
2022-09-01T13:29:46.503Z,30.44
2022-09-01T13:32:18.721Z,29.79
2022-09-01T13:34:47.710Z,29.34
2022-09-01T13:37:15.703Z,28.57
2022-09-01T13:39:43.205Z,28.27
2022-09-01T13:42:10.720Z,26.88
2022-09-01T13:44:38.591Z,25.82
2022-09-01T13:50:12.024Z,24.68
2022-09-01T13:52:41.363Z,24.26
2022-09-01T13:55:12.914Z,24.06
2022-09-01T13:57:40.547Z,23.34
2022-09-01T14:00:11.643Z,23.18
2022-09-01T14:02:40.605Z,22.90
2022-09-01T14:05:10.548Z,22.97
2022-09-01T14:07:38.136Z,23.34
2022-09-01T14:10:07.498Z,23.56
2022-09-01T14:12:35.452Z,23.42
2022-09-01T14:15:12.249Z,23.58
2022-09-01T14:17:42.892Z,23.91
2022-09-01T14:20:15.991Z,24.19
2022-09-01T14:22:43.575Z,24.06
2022-09-01T14:25:12.045Z,24.84
2022-09-01T14:27:41.067Z,26.22
2022-09-01T14:30:12.035Z,27.35
2022-09-01T14:32:39.643Z,28.63
2022-09-01T14:35:09.002Z,29.35
2022-09-01T14:37:39.178Z,29.35
2022-09-01T14:40:08.875Z,29.70
2022-09-01T14:42:37.162Z,30.23
2022-09-01T14:45:04.962Z,31.63
2022-09-01T14:47:32.496Z,32.12
2022-09-01T14:50:02.378Z,31.29
2022-09-01T14:52:30.588Z,28.23
2022-09-01T14:54:59.629Z,27.95
2022-09-01T14:57:31.301Z,26.99
2022-09-01T15:00:07.293Z,25.76
2022-09-01T15:02:34.793Z,25.41
2022-09-01T15:05:02.332Z,24.94
2022-09-01T15:07:29.964Z,24.88
2022-09-01T15:09:58.870Z,23.99
2022-09-01T15:12:30.825Z,23.81
2022-09-01T15:14:58.823Z,24.08
2022-09-01T15:17:26.647Z,23.99
2022-09-01T15:19:54.168Z,23.86
2022-09-01T15:22:22.041Z,23.37
2022-09-01T15:24:49.535Z,23.36
2022-09-01T15:27:18.356Z,23.64
2022-09-01T15:29:47.909Z,24.00
2022-09-01T15:32:27.341Z,24.32
2022-09-01T15:34:55.205Z,24.02
2022-09-01T15:37:22.753Z,24.05
2022-09-01T15:39:50.231Z,24.41
2022-09-01T15:42:19.054Z,24.40
2022-09-01T15:44:47.302Z,24.29
2022-09-01T15:47:14.820Z,24.36
2022-09-01T15:49:42.375Z,24.34
2022-09-01T15:52:11.219Z,23.95
2022-09-01T15:54:39.869Z,23.84
2022-09-01T15:57:08.962Z,23.58
2022-09-01T15:59:40.028Z,23.51
2022-09-01T16:02:09.692Z,23.65
2022-09-01T16:04:37.580Z,23.34
2022-09-01T16:07:05.269Z,23.59
2022-09-01T16:09:32.909Z,23.59
2022-09-01T16:12:00.450Z,23.86
2022-09-01T16:14:28.276Z,23.91
2022-09-01T16:17:04.164Z,23.93
2022-09-01T16:19:38.570Z,24.10
2022-09-01T16:22:12.899Z,24.33
2022-09-01T16:24:43.396Z,24.61
2022-09-01T16:27:14.717Z,24.80
2022-09-01T16:29:47.796Z,24.91
2022-09-01T16:32:18.511Z,25.10
2022-09-01T16:34:47.964Z,25.01
2022-09-01T16:37:25.279Z,24.87
2022-09-01T16:40:01.044Z,24.84
2022-09-01T16:42:37.635Z,24.67
2022-09-01T16:45:11.829Z,24.51
2022-09-01T16:48:00.039Z,24.49
2022-09-01T16:50:38.571Z,24.49
2022-09-01T16:53:18.703Z,24.22
2022-09-01T16:55:59.562Z,23.99
2022-09-01T16:58:36.549Z,23.95
2022-09-01T17:01:23.028Z,24.07
2022-09-01T17:04:01.495Z,23.81
2022-09-01T17:06:32.046Z,23.76
2022-09-01T17:09:10.026Z,23.41
2022-09-01T17:11:49.205Z,23.26
2022-09-01T17:14:27.762Z,23.24
2022-09-01T17:17:03.152Z,23.18
2022-09-01T17:19:32.346Z,23.00
2022-09-01T17:22:05.308Z,22.81
2022-09-01T17:24:38.450Z,22.71
2022-09-01T17:27:13.997Z,22.58
2022-09-01T17:29:44.819Z,22.35
2022-09-01T17:32:21.806Z,22.11
2022-09-01T17:35:02.612Z,21.76
2022-09-01T17:37:39.270Z,21.48
2022-09-01T17:40:15.277Z,21.30
2022-09-01T17:42:49.644Z,21.01
2022-09-01T17:45:28.839Z,20.83
2022-09-01T17:48:07.576Z,20.54
2022-09-01T17:50:50.832Z,20.29
2022-09-01T17:53:28.680Z,19.83
2022-09-01T17:56:02.736Z,19.54
2022-09-01T17:58:44.116Z,19.59
2022-09-01T18:01:20.606Z,19.38
2022-09-01T18:04:26.763Z,19.25
2022-09-01T18:07:04.023Z,18.71
2022-09-01T18:09:35.758Z,18.86
2022-09-01T18:12:09.745Z,18.81
2022-09-01T18:14:43.197Z,18.82
2022-09-01T18:17:15.768Z,18.65
2022-09-01T18:19:46.643Z,18.66
2022-09-01T18:22:19.724Z,18.47
2022-09-01T18:24:54.319Z,18.67
2022-09-01T18:27:24.203Z,18.64
2022-09-01T18:29:52.959Z,18.34
2022-09-01T18:32:36.762Z,17.94
2022-09-01T18:35:23.982Z,18.24
2022-09-01T18:38:04.776Z,18.19
2022-09-01T18:40:38.368Z,18.03
2022-09-01T18:43:16.707Z,18.12
2022-09-01T18:45:49.538Z,18.36
2022-09-01T18:48:28.473Z,18.03
2022-09-01T18:51:03.397Z,18.18
2022-09-01T18:53:42.451Z,18.28
2022-09-01T18:56:20.555Z,17.84
2022-09-01T18:59:00.412Z,17.84
2022-09-01T19:01:34.395Z,17.53
2022-09-01T19:04:15.128Z,17.69
2022-09-01T19:06:52.969Z,17.94
2022-09-01T19:09:29.552Z,17.53
2022-09-01T19:12:10.496Z,17.88
2022-09-01T19:14:46.258Z,17.67
2022-09-01T19:17:42.815Z,18.03
2022-09-01T19:20:12.561Z,18.18
2022-09-01T19:22:46.045Z,18.02
2022-09-01T19:25:36.632Z,17.91
2022-09-01T19:28:14.309Z,17.74
2022-09-01T19:30:46.006Z,17.97
2022-09-01T19:33:17.314Z,17.97
2022-09-01T19:35:48.059Z,17.78
2022-09-01T19:38:23.728Z,17.83
2022-09-01T19:40:54.646Z,17.74
2022-09-01T19:43:23.803Z,17.57
2022-09-01T19:46:03.564Z,17.46
2022-09-01T19:48:36.208Z,17.72
2022-09-01T19:51:09.508Z,17.81
2022-09-01T19:53:46.169Z,17.77
2022-09-01T19:56:19.952Z,17.46
2022-09-01T19:58:57.305Z,16.94
2022-09-01T20:01:38.633Z,16.93
2022-09-01T20:04:18.080Z,17.07
2022-09-01T20:06:52.098Z,16.46
2022-09-01T20:09:24.779Z,16.21
2022-09-01T20:11:58.467Z,16.03
2022-09-01T20:14:41.616Z,16.38
2022-09-01T20:17:15.737Z,15.93
2022-09-01T20:19:48.604Z,15.93
2022-09-01T20:22:31.151Z,15.99
2022-09-01T20:25:08.336Z,16.11
2022-09-01T20:27:46.850Z,16.17
2022-09-01T20:30:19.416Z,16.06
2022-09-01T20:32:53.199Z,16.02
2022-09-01T20:35:24.531Z,15.62
2022-09-01T20:37:58.694Z,15.61
2022-09-01T20:40:30.735Z,15.72
2022-09-01T20:43:14.807Z,15.48
2022-09-01T20:45:42.650Z,15.41
2022-09-01T20:48:14.282Z,15.21
2022-09-01T20:50:51.590Z,15.37
2022-09-01T20:53:36.601Z,15.26
2022-09-01T20:56:12.152Z,15.30
2022-09-01T20:58:45.379Z,15.37
2022-09-01T21:01:19.183Z,15.13
2022-09-01T21:04:00.736Z,15.07
2022-09-01T21:06:45.705Z,15.14
2022-09-01T21:09:19.917Z,15.25
2022-09-01T21:11:59.484Z,15.06
2022-09-01T21:14:39.997Z,14.73
2022-09-01T21:17:14.303Z,14.66
2022-09-01T21:19:52.549Z,14.94
2022-09-01T21:22:22.431Z,14.94
2022-09-01T21:24:50.568Z,14.66
2022-09-01T21:27:20.257Z,14.77
2022-09-01T21:29:55.295Z,14.55
2022-09-01T21:32:23.622Z,14.57
2022-09-01T21:34:52.956Z,14.57
2022-09-01T21:37:22.376Z,14.53
2022-09-01T21:39:53.094Z,14.48
2022-09-01T21:42:23.276Z,14.46
2022-09-01T21:44:54.301Z,14.21
2022-09-01T21:47:22.333Z,14.24
2022-09-01T21:49:49.935Z,14.14
2022-09-01T21:52:17.591Z,14.16
2022-09-01T21:54:45.149Z,14.18
2022-09-01T21:57:12.624Z,14.18
2022-09-01T21:59:40.121Z,14.11
2022-09-01T22:02:08.995Z,14.10
2022-09-01T22:04:37.407Z,14.16
2022-09-01T22:07:08.236Z,14.06
2022-09-01T22:09:35.841Z,13.96
2022-09-01T22:12:03.966Z,13.94
2022-09-01T22:14:31.427Z,14.04
2022-09-01T22:17:03.961Z,14.15
2022-09-01T22:19:35.297Z,14.20
2022-09-01T22:22:03.125Z,14.15
2022-09-01T22:24:30.623Z,14.14
2022-09-01T22:26:58.147Z,13.97
2022-09-01T22:29:25.998Z,13.93
2022-09-01T22:31:53.703Z,13.79
2022-09-01T22:34:21.190Z,13.75
2022-09-01T22:36:50.789Z,13.78
2022-09-01T22:39:19.315Z,13.80
2022-09-01T22:41:49.376Z,13.78
2022-09-01T22:44:16.987Z,13.75
2022-09-01T22:46:44.583Z,13.67
2022-09-01T22:49:13.120Z,13.75
2022-09-01T22:51:42.587Z,13.56
2022-09-01T22:54:12.271Z,13.45
2022-09-01T22:56:41.619Z,13.08
2022-09-01T22:59:11.614Z,13.41
2022-09-01T23:01:42.338Z,13.41
2022-09-01T23:04:12.953Z,13.38
2022-09-01T23:06:43.667Z,13.47
2022-09-01T23:09:13.056Z,13.44
2022-09-01T23:11:41.342Z,13.54
2022-09-01T23:14:08.841Z,13.47
2022-09-01T23:16:36.726Z,13.25
2022-09-01T23:19:04.885Z,13.35
2022-09-01T23:21:34.530Z,13.19
2022-09-01T23:24:02.595Z,13.57
2022-09-01T23:26:32.739Z,13.80
2022-09-01T23:29:00.627Z,13.77
2022-09-01T23:31:30.548Z,13.33
2022-09-01T23:33:58.784Z,13.51
2022-09-01T23:36:28.118Z,13.68
2022-09-01T23:38:56.233Z,13.46
2022-09-01T23:41:33.143Z,13.31
2022-09-01T23:44:03.320Z,13.08
2022-09-01T23:46:33.266Z,13.29
2022-09-01T23:49:02.208Z,13.43
2022-09-01T23:51:29.976Z,13.35
2022-09-01T23:53:58.096Z,13.21
2022-09-01T23:56:27.434Z,13.16
2022-09-01T23:58:56.643Z,12.99
